Time;durP1;ratioP1;P1;durP2;ratioP2;P2;SDS_P1;SDS_P2;PMS_P1;PMS_P2;Temp;Humidity;BMP_temperature;BMP_pressure;BME280_temperature;BME280_humidity;BME280_pressure;Samples;Min_cycle;Max_cycle;Signal;HPM_P1;HPM_P2
2022/11/03 00:01:55;;;;;;;6.22;1.50;;;11.00;99.20;;;;;;4969815;28;20117;-37
2022/11/03 00:04:22;;;;;;;6.53;0.98;;;11.00;99.30;;;;;;4968523;28;20069;-37
2022/11/03 00:06:53;;;;;;;6.32;1.08;;;11.00;99.40;;;;;;4968448;28;20046;-38
2022/11/03 00:09:20;;;;;;;7.72;1.05;;;11.00;99.30;;;;;;4969324;28;20031;-37
2022/11/03 00:11:47;;;;;;;8.82;0.90;;;11.00;99.20;;;;;;4967931;28;20147;-38
2022/11/03 00:14:13;;;;;;;7.72;1.00;;;11.00;99.20;;;;;;4969535;28;20038;-38
2022/11/03 00:16:40;;;;;;;10.13;1.10;;;11.00;99.30;;;;;;4965328;28;20466;-38
2022/11/03 00:19:07;;;;;;;7.15;1.10;;;11.00;99.20;;;;;;4965303;28;20416;-38
2022/11/03 00:21:33;;;;;;;8.63;1.85;;;11.00;99.20;;;;;;4970528;28;20051;-41
2022/11/03 00:24:01;;;;;;;5.80;1.15;;;11.00;99.20;;;;;;4967557;28;20042;-37
2022/11/03 00:26:28;;;;;;;7.85;1.25;;;11.00;99.30;;;;;;4971446;28;20095;-38
2022/11/03 00:28:56;;;;;;;9.32;0.88;;;11.00;99.40;;;;;;4970000;28;20117;-38
2022/11/03 00:31:30;;;;;;;7.25;1.10;;;10.90;99.40;;;;;;4972670;28;20047;-40
2022/11/03 00:33:57;;;;;;;7.70;1.10;;;10.90;99.50;;;;;;4969773;28;20051;-37
2022/11/03 00:36:28;;;;;;;8.48;1.00;;;10.90;99.70;;;;;;4969193;28;20070;-42
2022/11/03 00:38:54;;;;;;;9.48;1.42;;;10.80;99.80;;;;;;4965121;28;20142;-38
2022/11/03 00:41:21;;;;;;;5.43;0.77;;;10.80;99.80;;;;;;4969960;28;20042;-37
2022/11/03 00:43:48;;;;;;;7.95;1.08;;;10.90;99.90;;;;;;4968128;28;20134;-38
2022/11/03 00:46:13;;;;;;;6.25;0.82;;;10.90;99.80;;;;;;4971363;28;20039;-37
2022/11/03 00:48:40;;;;;;;10.68;1.35;;;10.80;99.80;;;;;;4969458;28;20397;-37
2022/11/03 00:51:16;;;;;;;11.27;1.20;;;10.80;99.90;;;;;;4969154;28;20035;-38
2022/11/03 00:53:51;;;;;;;9.40;1.33;;;10.80;99.90;;;;;;4964800;28;20500;-37
2022/11/03 00:56:32;;;;;;;7.03;0.88;;;10.80;99.90;;;;;;4969447;28;20508;-39
2022/11/03 00:58:59;;;;;;;9.88;1.17;;;10.70;99.90;;;;;;4968985;28;20117;-39
2022/11/03 01:01:27;;;;;;;9.10;0.98;;;10.70;99.90;;;;;;4964218;28;20485;-37
2022/11/03 01:06:53;;;;;;;6.50;0.65;;;10.70;99.90;;;;;;4962933;28;20047;-37
2022/11/03 01:09:24;;;;;;;3.47;0.85;;;10.60;99.90;;;;;;4960912;28;20480;-38
2022/11/03 01:11:55;;;;;;;5.40;0.70;;;10.60;99.90;;;;;;4968486;28;20069;-38
2022/11/03 01:14:21;;;;;;;8.02;0.88;;;10.60;99.90;;;;;;4973325;28;20045;-37
2022/11/03 01:16:47;;;;;;;6.68;1.60;;;10.60;99.90;;;;;;4965405;28;20050;-37
2022/11/03 01:19:13;;;;;;;5.60;1.20;;;10.60;99.90;;;;;;4966287;28;20424;-37
2022/11/03 01:21:38;;;;;;;7.10;1.05;;;10.60;99.90;;;;;;4968006;28;20043;-38
2022/11/03 01:24:04;;;;;;;7.65;1.20;;;10.50;99.90;;;;;;4964029;28;20070;-37
2022/11/03 01:26:30;;;;;;;9.35;1.20;;;10.50;99.90;;;;;;4965533;28;20051;-39
2022/11/03 01:28:58;;;;;;;8.05;1.10;;;10.50;99.90;;;;;;4950504;28;20046;-37
2022/11/03 01:31:25;;;;;;;9.32;1.23;;;10.50;99.90;;;;;;4971288;28;20051;-37
2022/11/03 01:33:53;;;;;;;4.28;0.90;;;10.40;99.90;;;;;;4966225;28;20045;-38
2022/11/03 01:36:19;;;;;;;10.35;1.83;;;10.40;99.90;;;;;;4965150;28;20062;-37
2022/11/03 01:38:45;;;;;;;5.05;0.95;;;10.40;99.90;;;;;;4967324;28;20046;-38
2022/11/03 01:41:18;;;;;;;6.72;1.00;;;10.40;99.90;;;;;;4970827;28;20523;-37
2022/11/03 01:43:46;;;;;;;5.00;0.77;;;10.40;99.90;;;;;;4966290;28;20049;-37
2022/11/03 01:46:19;;;;;;;5.40;0.88;;;10.40;99.90;;;;;;4966378;28;20377;-37
2022/11/03 01:49:01;;;;;;;2.83;0.50;;;10.30;99.90;;;;;;4965888;28;20105;-38
2022/11/03 01:51:29;;;;;;;5.83;1.47;;;10.30;99.90;;;;;;4968133;28;20523;-39
2022/11/03 01:53:58;;;;;;;7.22;1.23;;;10.30;99.90;;;;;;4968137;28;20297;-37
2022/11/03 01:56:24;;;;;;;4.25;1.05;;;10.30;99.90;;;;;;4965960;28;20046;-37
2022/11/03 01:58:53;;;;;;;9.43;1.00;;;10.30;99.90;;;;;;4968275;28;20055;-38
2022/11/03 02:01:21;;;;;;;8.10;1.05;;;10.30;99.90;;;;;;4971087;28;20654;-37
2022/11/03 02:03:54;;;;;;;5.97;1.10;;;10.30;99.90;;;;;;4965754;28;20038;-38
2022/11/03 02:06:24;;;;;;;8.45;1.10;;;10.30;99.90;;;;;;4967379;28;20057;-38
2022/11/03 02:09:03;;;;;;;8.43;1.98;;;10.30;99.90;;;;;;4963579;28;20031;-38
2022/11/03 02:14:15;;;;;;;6.18;0.80;;;10.20;99.90;;;;;;4964223;28;20047;-38
2022/11/03 02:16:45;;;;;;;10.40;1.27;;;10.20;99.90;;;;;;4965435;28;20392;-37
2022/11/03 02:19:39;;;;;;;8.68;1.25;;;10.20;99.90;;;;;;4971568;28;20436;-37
2022/11/03 02:22:45;;;;;;;6.00;1.00;;;10.30;99.90;;;;;;4966345;28;20096;-38
2022/11/03 02:25:42;;;;;;;4.28;0.70;;;10.30;99.90;;;;;;4970816;28;20042;-39
2022/11/03 02:28:08;;;;;;;9.75;1.23;;;10.30;99.90;;;;;;4963519;28;20178;-38
2022/11/03 02:30:55;;;;;;;8.48;1.25;;;10.30;99.90;;;;;;4954094;28;20045;-37
2022/11/03 02:33:28;;;;;;;5.88;1.00;;;10.30;99.90;;;;;;4965113;28;20049;-38
2022/11/03 02:35:56;;;;;;;6.68;1.02;;;10.30;99.90;;;;;;4965051;28;20528;-38
2022/11/03 02:38:27;;;;;;;7.65;1.02;;;10.30;99.90;;;;;;4965069;28;20039;-38
2022/11/03 02:40:55;;;;;;;7.95;1.75;;;10.30;99.90;;;;;;4965411;28;20068;-37
2022/11/03 02:43:23;;;;;;;6.82;1.23;;;10.30;99.90;;;;;;4964910;28;20108;-38
2022/11/03 02:45:50;;;;;;;7.10;0.98;;;10.30;99.90;;;;;;4966341;28;20042;-40
2022/11/03 02:48:17;;;;;;;4.88;1.00;;;10.30;99.90;;;;;;4965980;28;20049;-38
2022/11/03 02:50:43;;;;;;;6.47;1.15;;;10.30;99.90;;;;;;4965031;28;20039;-38
2022/11/03 02:53:12;;;;;;;9.25;1.42;;;10.30;99.90;;;;;;4965544;28;20049;-38
2022/11/03 02:56:00;;;;;;;6.80;1.40;;;10.20;99.90;;;;;;4953130;28;20039;-38
2022/11/03 02:58:48;;;;;;;8.88;1.20;;;10.20;99.90;;;;;;4965041;28;20039;-38
2022/11/03 03:01:46;;;;;;;7.30;1.20;;;10.20;99.90;;;;;;4966879;28;20042;-38
2022/11/03 03:04:30;;;;;;;4.93;1.17;;;10.20;99.90;;;;;;4964304;28;20038;-37
2022/11/03 03:07:18;;;;;;;6.15;1.10;;;10.20;99.90;;;;;;4967110;28;20082;-39
2022/11/03 03:09:48;;;;;;;8.18;1.40;;;10.20;99.90;;;;;;4969620;28;20082;-39
2022/11/03 03:12:17;;;;;;;8.90;1.08;;;10.20;99.90;;;;;;4969934;28;20038;-37
2022/11/03 03:14:45;;;;;;;8.02;1.13;;;10.20;99.90;;;;;;4970743;28;20134;-37
2022/11/03 03:17:37;;;;;;;11.35;2.05;;;10.10;99.90;;;;;;4973222;28;20551;-37
2022/11/03 03:20:06;;;;;;;5.55;1.30;;;10.10;99.90;;;;;;4968818;28;20113;-38
2022/11/03 03:22:57;;;;;;;6.18;1.05;;;10.10;99.90;;;;;;4971632;28;20512;-37
2022/11/03 03:25:41;;;;;;;8.57;1.00;;;10.10;99.90;;;;;;4976595;28;20046;-38
2022/11/03 03:28:17;;;;;;;9.73;1.85;;;10.20;99.90;;;;;;4960960;28;20043;-37
2022/11/03 03:30:45;;;;;;;5.32;0.88;;;10.20;99.90;;;;;;4970380;28;20050;-37
2022/11/03 03:33:12;;;;;;;7.90;1.05;;;10.20;99.90;;;;;;4974138;28;20049;-37
2022/11/03 03:35:41;;;;;;;7.82;1.25;;;10.20;99.90;;;;;;4972568;28;20030;-39
2022/11/03 03:38:14;;;;;;;5.43;0.82;;;10.20;99.90;;;;;;4969003;28;20142;-38
2022/11/03 03:40:44;;;;;;;8.13;1.00;;;10.20;99.90;;;;;;4972506;28;20050;-38
2022/11/03 03:43:13;;;;;;;5.88;1.27;;;10.20;99.90;;;;;;4968294;28;20046;-37
2022/11/03 03:45:41;;;;;;;4.22;1.00;;;10.20;99.90;;;;;;4969911;28;20101;-38
2022/11/03 03:48:07;;;;;;;11.98;0.95;;;10.20;99.90;;;;;;4969845;28;20042;-37
2022/11/03 03:50:36;;;;;;;13.55;1.98;;;10.20;99.90;;;;;;4973341;28;20046;-37
2022/11/03 03:53:05;;;;;;;8.13;1.17;;;10.20;99.90;;;;;;4967703;28;20035;-37
2022/11/03 03:55:37;;;;;;;8.85;1.33;;;10.30;99.90;;;;;;4953830;28;20065;-37
2022/11/03 03:58:04;;;;;;;9.38;1.10;;;10.30;99.90;;;;;;4948309;28;20042;-38
2022/11/03 04:00:30;;;;;;;5.75;1.30;;;10.30;99.90;;;;;;4970785;28;20407;-38
2022/11/03 04:02:57;;;;;;;7.07;1.15;;;10.30;99.90;;;;;;4970096;28;20035;-38
2022/11/03 04:05:23;;;;;;;7.30;0.88;;;10.30;99.90;;;;;;4968867;28;20058;-38
2022/11/03 04:07:48;;;;;;;10.20;1.23;;;10.40;99.90;;;;;;4964667;28;20187;-37
2022/11/03 04:10:15;;;;;;;9.40;1.35;;;10.40;99.90;;;;;;4963640;28;20039;-37
2022/11/03 04:22:15;;;;;;;6.00;1.10;;;10.40;99.90;;;;;;4970676;28;20377;-37
2022/11/03 04:23:59;;;;;;;5.78;1.02;;;10.50;99.90;;;;;;4964480;28;20587;-38
2022/11/03 04:26:26;;;;;;;8.10;1.73;;;10.40;99.90;;;;;;4967660;28;20045;-38
2022/11/03 04:28:52;;;;;;;5.40;0.75;;;10.50;99.90;;;;;;4966452;28;20527;-39
2022/11/03 04:31:19;;;;;;;5.10;1.17;;;10.50;99.90;;;;;;4965506;28;20082;-37
2022/11/03 04:33:46;;;;;;;10.27;1.33;;;10.50;99.90;;;;;;4975161;28;20083;-38
2022/11/03 04:36:23;;;;;;;3.85;1.05;;;10.50;99.90;;;;;;4964799;28;20113;-38
2022/11/03 04:38:50;;;;;;;8.93;1.30;;;10.50;99.90;;;;;;4968230;28;20526;-39
2022/11/03 04:41:27;;;;;;;6.75;1.23;;;10.60;99.90;;;;;;4966040;28;20503;-38
2022/11/03 04:43:54;;;;;;;9.38;1.30;;;10.60;99.90;;;;;;4967074;28;20049;-37
2022/11/03 04:46:27;;;;;;;7.68;1.13;;;10.60;99.90;;;;;;4965065;28;20050;-39
2022/11/03 04:48:56;;;;;;;9.52;1.08;;;10.60;99.90;;;;;;4963150;28;20039;-37
2022/11/03 04:51:26;;;;;;;8.98;0.80;;;10.70;99.90;;;;;;4967217;28;20031;-38
2022/11/03 04:54:02;;;;;;;4.75;0.63;;;10.70;99.90;;;;;;4962707;28;20046;-38
2022/11/03 04:56:29;;;;;;;6.00;0.90;;;10.70;99.90;;;;;;4968000;28;20540;-38
2022/11/03 04:58:56;;;;;;;3.13;0.75;;;10.70;99.90;;;;;;4970959;28;20046;-38
2022/11/03 05:01:23;;;;;;;11.65;0.90;;;10.70;99.90;;;;;;4974938;28;20050;-37
2022/11/03 05:03:51;;;;;;;6.47;0.93;;;10.70;99.90;;;;;;4967375;28;20046;-37
2022/11/03 05:06:18;;;;;;;6.88;0.70;;;10.70;99.90;;;;;;4968150;28;20039;-37
2022/11/03 05:08:48;;;;;;;5.50;0.90;;;10.70;99.90;;;;;;4950906;28;20856;-38
2022/11/03 05:11:40;;;;;;;5.25;0.90;;;10.80;99.90;;;;;;4967190;28;20034;-37
2022/11/03 05:14:22;;;;;;;6.57;0.75;;;10.80;99.90;;;;;;4970442;28;20468;-38
2022/11/03 05:16:48;;;;;;;5.15;0.85;;;10.80;99.90;;;;;;4964886;28;20047;-39
2022/11/03 05:19:23;;;;;;;9.95;1.10;;;10.80;99.90;;;;;;4966309;28;20600;-38
2022/11/03 05:21:51;;;;;;;5.18;0.90;;;10.80;99.90;;;;;;4968358;28;20588;-37
2022/11/03 05:24:20;;;;;;;7.43;0.95;;;10.80;99.90;;;;;;4949360;28;20492;-38
2022/11/03 05:26:47;;;;;;;9.20;1.08;;;10.80;99.90;;;;;;4967720;28;20050;-40
2022/11/03 05:29:18;;;;;;;7.50;1.25;;;10.80;99.90;;;;;;4975416;28;20038;-37
2022/11/03 05:31:46;;;;;;;7.38;1.27;;;10.80;99.90;;;;;;4973051;28;20047;-38
2022/11/03 05:34:36;;;;;;;5.10;1.00;;;10.80;99.90;;;;;;4970831;28;20031;-38
2022/11/03 05:37:25;;;;;;;5.80;0.68;;;10.80;99.90;;;;;;4974299;28;20039;-38
2022/11/03 05:39:52;;;;;;;5.45;0.85;;;10.80;99.90;;;;;;4960791;28;20117;-37
2022/11/03 05:42:21;;;;;;;6.82;1.10;;;10.80;99.90;;;;;;4955766;28;20132;-38
2022/11/03 05:44:47;;;;;;;6.80;1.10;;;10.80;99.90;;;;;;4967408;28;20765;-38
2022/11/03 05:47:25;;;;;;;7.90;1.27;;;10.70;99.90;;;;;;4968864;28;20035;-37
2022/11/03 05:49:59;;;;;;;5.20;1.00;;;10.70;99.90;;;;;;4967431;28;20097;-37
2022/11/03 05:52:26;;;;;;;6.75;1.13;;;10.70;99.90;;;;;;4967356;28;20069;-39
2022/11/03 05:54:58;;;;;;;3.42;0.73;;;10.70;99.90;;;;;;4972975;28;20070;-38
2022/11/03 05:57:27;;;;;;;7.43;1.35;;;10.70;99.90;;;;;;4968838;28;20500;-37
2022/11/03 05:59:53;;;;;;;5.68;1.13;;;10.70;99.90;;;;;;4965821;28;20121;-38
2022/11/03 06:02:34;;;;;;;5.95;1.27;;;10.60;99.90;;;;;;4966910;28;20039;-37
2022/11/03 06:05:01;;;;;;;9.63;1.05;;;10.70;99.90;;;;;;4966261;28;20571;-37
2022/11/03 06:07:29;;;;;;;3.58;0.60;;;10.70;99.90;;;;;;4968146;28;20043;-38
2022/11/03 06:09:54;;;;;;;4.10;0.63;;;10.70;99.90;;;;;;4968567;28;20396;-40
2022/11/03 06:12:21;;;;;;;8.77;1.20;;;10.70;99.90;;;;;;4974098;28;20045;-37
2022/11/03 06:14:47;;;;;;;4.50;0.98;;;10.70;99.90;;;;;;4971042;28;20054;-37
2022/11/03 06:17:25;;;;;;;7.95;1.55;;;10.70;99.90;;;;;;4967826;28;20046;-38
2022/11/03 06:19:57;;;;;;;6.72;1.00;;;10.80;99.90;;;;;;4967443;28;20057;-41
2022/11/03 06:22:29;;;;;;;2.65;0.60;;;10.70;99.90;;;;;;4965920;28;20066;-37
2022/11/03 06:25:00;;;;;;;5.85;0.90;;;10.70;99.90;;;;;;4960615;28;20034;-38
2022/11/03 06:27:29;;;;;;;4.80;1.00;;;10.70;99.90;;;;;;4960287;28;20101;-38
2022/11/03 06:30:00;;;;;;;5.45;0.80;;;10.70;99.90;;;;;;4943175;28;20041;-38
2022/11/03 06:32:27;;;;;;;5.25;1.45;;;10.70;99.90;;;;;;4957896;28;20649;-38
2022/11/03 06:35:02;;;;;;;6.05;1.00;;;10.60;99.90;;;;;;4960563;28;20097;-38
2022/11/03 06:37:31;;;;;;;7.40;0.95;;;10.60;99.90;;;;;;4965533;28;20047;-39
2022/11/03 06:40:00;;;;;;;5.90;1.15;;;10.60;99.90;;;;;;4971178;28;20047;-39
2022/11/03 06:42:30;;;;;;;7.45;0.85;;;10.70;99.90;;;;;;4963138;28;21540;-39
2022/11/03 06:44:56;;;;;;;9.63;1.35;;;10.70;99.90;;;;;;4967858;28;20496;-38
2022/11/03 06:47:26;;;;;;;7.13;1.10;;;10.70;99.90;;;;;;4964235;28;20070;-37
2022/11/03 06:49:57;;;;;;;6.53;1.02;;;10.70;99.90;;;;;;4969924;28;20039;-38
2022/11/03 06:52:30;;;;;;;8.25;1.20;;;10.70;99.90;;;;;;4968858;28;20035;-38
2022/11/03 06:55:10;;;;;;;8.02;0.93;;;10.70;99.90;;;;;;4968757;28;20601;-38
2022/11/03 06:57:42;;;;;;;3.38;0.70;;;10.70;99.90;;;;;;4941405;28;20452;-40
2022/11/03 07:00:20;;;;;;;4.57;1.33;;;10.80;99.90;;;;;;4972649;28;20042;-40
2022/11/03 07:03:11;;;;;;;10.25;1.35;;;10.80;99.90;;;;;;4969809;28;20121;-38
2022/11/03 07:05:38;;;;;;;4.90;1.13;;;10.80;99.90;;;;;;4966556;28;20058;-38
2022/11/03 07:08:24;;;;;;;9.32;1.90;;;10.90;99.90;;;;;;4960530;28;20097;-38
2022/11/03 07:11:18;;;;;;;7.05;0.93;;;10.90;99.90;;;;;;4970994;28;20400;-40
2022/11/03 07:13:47;;;;;;;6.85;1.13;;;10.90;99.90;;;;;;4953617;28;20051;-39
2022/11/03 07:16:17;;;;;;;5.10;1.00;;;10.90;99.90;;;;;;4967042;28;20114;-40
2022/11/03 07:18:44;;;;;;;7.93;1.45;;;11.00;99.90;;;;;;4968330;28;20050;-40
2022/11/03 07:21:23;;;;;;;5.55;1.00;;;11.00;99.90;;;;;;4958608;28;20057;-40
2022/11/03 07:23:50;;;;;;;7.53;1.83;;;11.10;99.90;;;;;;4970372;28;20043;-40
2022/11/03 07:26:15;;;;;;;8.18;0.98;;;11.10;99.90;;;;;;4941585;28;20051;-41
2022/11/03 07:28:41;;;;;;;8.23;1.10;;;11.10;99.90;;;;;;4967492;28;20043;-39
2022/11/03 07:31:18;;;;;;;6.25;0.82;;;11.20;99.90;;;;;;4947255;28;20404;-40
2022/11/03 07:33:44;;;;;;;7.88;1.25;;;11.30;99.90;;;;;;4963515;28;20035;-40
2022/11/03 07:36:17;;;;;;;5.10;0.93;;;11.30;99.90;;;;;;4968009;28;20034;-39
2022/11/03 07:38:45;;;;;;;5.28;0.98;;;11.30;99.90;;;;;;4962306;28;20049;-39
2022/11/03 07:41:19;;;;;;;11.80;1.40;;;11.40;99.90;;;;;;4968254;28;20061;-40
2022/11/03 07:43:58;;;;;;;4.60;0.82;;;11.40;99.90;;;;;;4977177;28;20057;-40
2022/11/03 07:46:25;;;;;;;7.75;1.40;;;11.40;99.90;;;;;;4971961;28;20078;-39
2022/11/03 07:48:56;;;;;;;6.82;1.20;;;11.40;99.90;;;;;;4966392;28;20043;-39
2022/11/03 07:51:26;;;;;;;8.32;1.42;;;11.40;99.90;;;;;;4970253;28;20073;-41
2022/11/03 07:54:14;;;;;;;4.32;0.77;;;11.50;99.90;;;;;;4968609;28;20066;-40
2022/11/03 07:56:53;;;;;;;7.85;1.45;;;11.60;99.90;;;;;;4930702;28;20066;-40
2022/11/03 07:59:22;;;;;;;9.55;2.22;;;11.60;99.90;;;;;;4967548;28;20050;-40
2022/11/03 08:01:54;;;;;;;6.88;1.00;;;11.70;99.90;;;;;;4945933;28;20042;-40
2022/11/03 08:04:24;;;;;;;6.60;0.98;;;11.70;99.90;;;;;;4944892;29;20047;-40
2022/11/03 08:06:50;;;;;;;6.63;1.10;;;11.70;99.90;;;;;;4971094;28;20535;-39
2022/11/03 08:09:16;;;;;;;6.35;1.05;;;11.80;99.90;;;;;;4972457;28;20034;-40
2022/11/03 08:11:42;;;;;;;7.05;0.93;;;11.90;99.90;;;;;;4972854;28;20066;-40
2022/11/03 08:14:09;;;;;;;5.13;1.40;;;11.90;99.90;;;;;;4973063;28;20500;-40
2022/11/03 08:16:35;;;;;;;5.97;0.98;;;11.90;99.90;;;;;;4957051;28;20051;-40
2022/11/03 08:19:01;;;;;;;5.50;0.90;;;12.00;99.90;;;;;;4969964;28;20138;-39
2022/11/03 08:21:26;;;;;;;7.75;1.00;;;12.00;99.90;;;;;;4972646;28;20473;-40
2022/11/03 08:23:52;;;;;;;5.65;1.50;;;12.00;99.90;;;;;;4968845;28;20066;-40
2022/11/03 08:26:18;;;;;;;7.55;1.75;;;12.10;99.90;;;;;;4953546;28;20035;-42
2022/11/03 08:28:44;;;;;;;7.90;1.05;;;12.10;99.90;;;;;;4972463;28;20113;-41
2022/11/03 08:31:10;;;;;;;6.65;1.35;;;12.10;99.90;;;;;;4972520;28;20054;-40
2022/11/03 08:33:35;;;;;;;7.43;1.05;;;12.10;99.90;;;;;;4972513;28;20043;-40
2022/11/03 08:36:03;;;;;;;4.65;0.80;;;12.10;99.90;;;;;;4972962;28;20045;-40
2022/11/03 08:38:29;;;;;;;7.13;1.20;;;12.20;99.90;;;;;;4969183;28;20121;-41
2022/11/03 08:40:57;;;;;;;7.82;1.30;;;12.20;99.90;;;;;;4970758;28;20039;-40
2022/11/03 08:43:23;;;;;;;5.65;1.00;;;12.20;99.90;;;;;;4952128;28;20685;-40
2022/11/03 08:45:55;;;;;;;7.55;1.45;;;12.20;99.90;;;;;;4966667;28;20039;-41
2022/11/03 08:48:22;;;;;;;8.70;1.45;;;12.30;99.90;;;;;;4954211;28;20485;-40
2022/11/03 08:50:53;;;;;;;4.18;0.80;;;12.30;99.90;;;;;;4969054;28;20495;-41
2022/11/03 08:53:23;;;;;;;8.88;1.52;;;12.30;99.90;;;;;;4965654;28;20062;-41
2022/11/03 08:55:48;;;;;;;4.07;0.85;;;12.40;99.90;;;;;;4959626;28;20090;-40
2022/11/03 08:58:15;;;;;;;8.13;1.10;;;12.40;99.90;;;;;;4968330;28;20450;-40
2022/11/03 09:00:41;;;;;;;7.43;1.05;;;12.40;99.90;;;;;;4970120;28;20069;-40
2022/11/03 09:03:06;;;;;;;6.03;1.35;;;12.50;99.90;;;;;;4971140;28;20093;-41
2022/11/03 09:05:32;;;;;;;7.40;1.20;;;12.50;99.90;;;;;;4972274;28;20412;-43
2022/11/03 09:07:58;;;;;;;7.20;1.00;;;12.60;99.90;;;;;;4966770;28;20043;-40
2022/11/03 09:10:24;;;;;;;9.15;1.15;;;12.60;99.90;;;;;;4968101;28;20074;-40
2022/11/03 09:12:50;;;;;;;9.73;0.85;;;12.60;99.90;;;;;;4965871;28;20066;-42
2022/11/03 09:15:16;;;;;;;4.57;0.85;;;12.70;99.90;;;;;;4968644;28;20066;-40
2022/11/03 09:17:41;;;;;;;10.30;1.20;;;12.70;99.90;;;;;;4965909;28;20090;-40
2022/11/03 09:20:08;;;;;;;6.47;1.20;;;12.80;99.90;;;;;;4965608;28;20038;-40
2022/11/03 09:22:34;;;;;;;10.07;1.38;;;12.80;99.90;;;;;;4966202;28;20504;-41
2022/11/03 09:25:00;;;;;;;7.25;0.98;;;12.80;99.90;;;;;;4973974;28;20108;-42
2022/11/03 09:27:26;;;;;;;6.40;1.10;;;12.90;99.90;;;;;;4965650;28;20526;-42
2022/11/03 09:29:51;;;;;;;4.13;1.48;;;12.90;99.90;;;;;;4969035;28;20152;-41
2022/11/03 09:32:17;;;;;;;7.03;0.88;;;12.90;99.90;;;;;;4966171;28;20056;-41
2022/11/03 09:34:43;;;;;;;4.68;0.95;;;12.90;99.90;;;;;;4973861;28;20042;-41
2022/11/03 09:37:09;;;;;;;4.72;1.27;;;13.00;99.90;;;;;;4953672;28;20046;-41
2022/11/03 09:39:34;;;;;;;6.55;1.10;;;12.90;99.90;;;;;;4952033;28;20045;-41
2022/11/03 09:42:02;;;;;;;7.65;1.30;;;13.00;99.90;;;;;;4974624;28;20042;-41
2022/11/03 09:44:32;;;;;;;5.50;0.90;;;13.00;99.90;;;;;;4971865;28;20046;-42
2022/11/03 09:46:58;;;;;;;6.38;1.20;;;13.00;99.90;;;;;;4952362;28;20054;-42
2022/11/03 09:49:25;;;;;;;8.02;1.15;;;13.00;99.90;;;;;;4969835;28;20527;-39
2022/11/03 09:51:52;;;;;;;9.57;1.20;;;13.10;99.90;;;;;;4968234;28;20046;-42
2022/11/03 09:54:19;;;;;;;8.52;1.58;;;13.10;99.90;;;;;;4965442;28;20034;-42
2022/11/03 09:56:46;;;;;;;5.55;1.40;;;13.20;99.90;;;;;;4980221;28;20085;-41
2022/11/03 09:59:20;;;;;;;6.88;1.52;;;13.30;99.90;;;;;;4969278;28;20142;-41
2022/11/03 10:01:48;;;;;;;7.57;1.13;;;13.50;99.90;;;;;;4970173;28;20146;-41
2022/11/03 10:04:17;;;;;;;5.70;1.27;;;13.70;99.90;;;;;;4971031;28;20081;-42
2022/11/03 10:06:43;;;;;;;6.63;1.67;;;13.80;99.90;;;;;;4969039;28;20501;-42
2022/11/03 10:09:14;;;;;;;9.60;1.48;;;14.00;99.90;;;;;;4973781;28;20045;-41
2022/11/03 10:11:40;;;;;;;9.18;1.45;;;14.10;99.90;;;;;;4972751;28;20101;-42
2022/11/03 10:14:11;;;;;;;3.30;0.95;;;14.10;99.90;;;;;;4969621;28;20045;-41
2022/11/03 10:16:37;;;;;;;4.07;0.98;;;14.20;99.90;;;;;;4967685;28;20093;-44
2022/11/03 10:19:03;;;;;;;11.15;1.25;;;14.10;99.90;;;;;;4975613;28;20050;-41
2022/11/03 10:21:32;;;;;;;6.35;1.20;;;14.20;99.80;;;;;;4971500;28;20038;-40
2022/11/03 10:23:58;;;;;;;6.80;1.52;;;14.20;99.60;;;;;;4966679;28;20061;-40
2022/11/03 10:26:24;;;;;;;7.72;1.20;;;14.20;99.40;;;;;;4964050;28;20047;-40
2022/11/03 10:29:07;;;;;;;7.57;1.25;;;14.20;99.20;;;;;;4968769;28;20396;-40
2022/11/03 10:31:38;;;;;;;5.18;0.88;;;14.20;98.90;;;;;;4964522;28;20153;-40
2022/11/03 10:34:05;;;;;;;4.75;0.70;;;14.20;98.50;;;;;;4964840;28;20043;-41
2022/11/03 10:36:33;;;;;;;7.03;1.58;;;14.20;98.20;;;;;;4967425;28;20492;-41
2022/11/03 10:39:19;;;;;;;4.93;0.95;;;14.30;98.10;;;;;;4966585;28;20492;-40
2022/11/03 10:41:57;;;;;;;3.58;0.77;;;14.30;98.30;;;;;;4967387;28;20529;-41
2022/11/03 10:44:26;;;;;;;5.68;1.25;;;14.30;97.70;;;;;;4969330;28;20042;-41
2022/11/03 10:47:00;;;;;;;4.50;1.08;;;14.40;97.70;;;;;;4966186;28;20082;-40
2022/11/03 10:49:36;;;;;;;5.57;1.17;;;14.50;97.70;;;;;;4966016;28;20049;-41
2022/11/03 10:52:23;;;;;;;9.07;1.10;;;14.50;97.50;;;;;;4968264;28;20042;-40
2022/11/03 10:54:51;;;;;;;3.78;1.00;;;14.70;97.10;;;;;;4969285;28;20043;-40
2022/11/03 10:57:17;;;;;;;8.55;1.40;;;14.70;97.30;;;;;;4968983;28;20046;-39
2022/11/03 10:59:46;;;;;;;4.53;0.75;;;14.90;97.00;;;;;;4969946;28;20043;-39
2022/11/03 11:02:20;;;;;;;2.88;0.70;;;14.90;96.40;;;;;;4950678;28;20042;-42
2022/11/03 11:04:48;;;;;;;4.82;0.60;;;14.90;95.70;;;;;;4971030;28;20078;-40
2022/11/03 11:07:20;;;;;;;5.20;1.00;;;15.00;95.50;;;;;;4948746;28;20125;-40
2022/11/03 11:09:46;;;;;;;4.68;0.82;;;14.90;95.00;;;;;;4962729;28;20508;-41
2022/11/03 11:12:23;;;;;;;5.53;1.10;;;14.90;95.40;;;;;;4966543;28;20039;-39
2022/11/03 11:14:57;;;;;;;4.32;1.33;;;14.90;95.20;;;;;;4959787;28;20485;-39
2022/11/03 11:17:46;;;;;;;6.57;1.10;;;14.90;95.20;;;;;;4960378;28;20109;-40
2022/11/03 11:20:20;;;;;;;7.50;0.95;;;14.80;95.00;;;;;;4942065;28;20050;-41
2022/11/03 11:22:46;;;;;;;4.68;0.90;;;14.80;94.90;;;;;;4972632;28;20054;-41
2022/11/03 11:25:12;;;;;;;8.27;1.00;;;14.80;94.70;;;;;;4966703;28;20181;-40
2022/11/03 11:27:38;;;;;;;7.30;1.08;;;14.80;94.70;;;;;;4968564;28;20073;-40
2022/11/03 11:30:26;;;;;;;8.93;1.00;;;14.80;94.60;;;;;;4967531;28;20153;-42
2022/11/03 11:33:00;;;;;;;5.57;0.98;;;14.70;94.50;;;;;;4965483;28;20512;-41
2022/11/03 11:35:25;;;;;;;5.20;0.90;;;14.70;94.30;;;;;;4969993;28;20043;-41
2022/11/03 11:37:52;;;;;;;4.03;0.93;;;14.60;94.30;;;;;;4967720;28;20046;-42
2022/11/03 11:40:24;;;;;;;5.22;1.13;;;14.60;94.50;;;;;;4967689;28;20084;-40
2022/11/03 11:43:04;;;;;;;5.63;1.20;;;14.60;94.70;;;;;;4969853;28;20061;-40
2022/11/03 11:46:07;;;;;;;4.85;0.98;;;14.50;94.70;;;;;;4972304;28;20492;-41
2022/11/03 11:48:33;;;;;;;2.95;0.70;;;14.50;94.80;;;;;;4975461;28;20051;-39
2022/11/03 11:51:00;;;;;;;3.47;0.90;;;14.50;94.90;;;;;;4968100;28;20091;-40
2022/11/03 11:53:28;;;;;;;4.72;0.70;;;14.50;94.70;;;;;;4969645;28;20042;-40
2022/11/03 11:55:59;;;;;;;4.45;0.70;;;14.50;94.60;;;;;;4964830;28;20066;-39
2022/11/03 11:58:41;;;;;;;5.20;0.80;;;14.50;94.70;;;;;;4964687;28;20039;-40
2022/11/03 12:01:40;;;;;;;7.85;0.93;;;14.50;94.80;;;;;;4972177;28;20042;-41
2022/11/03 12:04:14;;;;;;;4.43;0.90;;;14.50;94.80;;;;;;4969570;28;20043;-39
2022/11/03 12:06:41;;;;;;;7.50;1.50;;;14.50;94.90;;;;;;4969139;28;20051;-41
2022/11/03 12:09:14;;;;;;;4.53;0.82;;;14.50;94.70;;;;;;4974552;28;20028;-41
2022/11/03 12:11:47;;;;;;;3.63;1.00;;;14.60;94.70;;;;;;4969523;28;20129;-42
2022/11/03 12:14:39;;;;;;;4.22;1.05;;;14.60;94.60;;;;;;4969180;28;20038;-41
2022/11/03 12:17:16;;;;;;;4.50;0.60;;;14.60;93.90;;;;;;4966125;28;20611;-40
2022/11/03 12:19:46;;;;;;;4.55;0.90;;;14.70;93.80;;;;;;4970522;28;20093;-40
2022/11/03 12:22:38;;;;;;;5.55;0.90;;;14.90;93.80;;;;;;4971615;28;20081;-42
2022/11/03 12:25:09;;;;;;;3.13;0.70;;;15.10;92.80;;;;;;4965025;28;20065;-40
2022/11/03 12:27:35;;;;;;;5.28;1.00;;;15.30;93.00;;;;;;4971379;28;20314;-41
2022/11/03 12:30:11;;;;;;;3.05;0.80;;;15.40;92.70;;;;;;4968198;28;20042;-40
2022/11/03 12:32:37;;;;;;;3.83;1.05;;;15.70;92.40;;;;;;4966364;28;20058;-40
2022/11/03 12:35:04;;;;;;;4.32;0.80;;;15.90;91.90;;;;;;4971875;28;20412;-40
2022/11/03 12:37:30;;;;;;;4.55;1.10;;;15.90;90.80;;;;;;4972871;28;20528;-40
2022/11/03 12:39:55;;;;;;;10.10;1.27;;;15.90;91.10;;;;;;4963106;28;20125;-40
2022/11/03 12:42:23;;;;;;;3.85;0.68;;;15.90;90.70;;;;;;4968079;28;20062;-40
2022/11/03 12:44:49;;;;;;;3.92;0.98;;;15.90;90.20;;;;;;4968547;28;20102;-40
2022/11/03 12:47:15;;;;;;;5.97;1.10;;;15.80;90.30;;;;;;4969263;28;20620;-40
2022/11/03 12:49:40;;;;;;;4.03;1.00;;;15.70;90.00;;;;;;4955625;28;20114;-39
2022/11/03 12:52:07;;;;;;;5.53;1.00;;;15.60;90.20;;;;;;4970377;28;20169;-42
2022/11/03 12:54:33;;;;;;;4.95;0.73;;;15.40;90.30;;;;;;4969446;28;20499;-42
2022/11/03 12:56:59;;;;;;;4.40;0.93;;;15.40;90.80;;;;;;4967157;28;20047;-39
2022/11/03 12:59:24;;;;;;;4.05;0.75;;;15.30;90.90;;;;;;4968643;28;20045;-40
2022/11/03 13:01:50;;;;;;;3.40;0.70;;;15.30;91.00;;;;;;4973099;28;20523;-40
2022/11/03 13:04:16;;;;;;;4.53;1.08;;;15.20;90.90;;;;;;4950682;28;20047;-39
2022/11/03 13:06:42;;;;;;;5.00;0.82;;;15.30;91.00;;;;;;4948984;28;20047;-39
2022/11/03 13:09:07;;;;;;;2.58;0.75;;;15.30;91.20;;;;;;4964559;28;20111;-39
2022/11/03 13:14:17;;;;;;;6.18;1.02;;;15.40;91.60;;;;;;4962818;28;20035;-39
2022/11/03 13:16:43;;;;;;;5.90;1.00;;;15.60;90.90;;;;;;4964511;28;20053;-39
2022/11/03 13:19:09;;;;;;;5.47;0.95;;;15.70;90.60;;;;;;4978355;28;20043;-40
2022/11/03 13:21:35;;;;;;;5.15;2.00;;;15.80;90.30;;;;;;4947192;28;20082;-40